PGT387U LTFH-LTFJ
Flight info
| Callsign | PGT387U |
|---|---|
| Flight time | 1h 10m |
| Altitude | 36000 |
| Route | HAVZA UW71 ILHAN UT79 NAMAN |
| Aircraft | A21N/M-SDE2E3FGHIRWXY/LB1 |
Departure
| Time | 2026-04-15 10:35 |
|---|---|
| Airport | Samsun-Çarşamba Airport (LTFH) |
Arrival
| Time | 2026-04-15 11:45 |
|---|---|
| Airport | Istanbul Sabiha Gökçen International Airport (LTFJ) |
| Time | Latitude | Longitude | Altitude | Speed | Heading |
|---|---|---|---|---|---|
| 2026-04-15 09:56 | 41.25786 | 36.55632 | 36 ft | 0 kts | 224° |
| 2026-04-15 10:25 | 41.25789 | 36.55636 | 71 ft | 3 kts | 224° |
| 2026-04-15 10:26 | 41.25806 | 36.55663 | 71 ft | 4 kts | 239° |
| 2026-04-15 10:26 | 41.25816 | 36.55695 | 71 ft | 4 kts | 266° |
| 2026-04-15 10:26 | 41.25811 | 36.55723 | 71 ft | 3 kts | 312° |
| 2026-04-15 10:26 | 41.25809 | 36.55726 | 71 ft | 4 kts | 314° |
| 2026-04-15 10:30 | 41.25810 | 36.55725 | 71 ft | 1 kts | 314° |
| 2026-04-15 10:30 | 41.25819 | 36.55711 | 71 ft | 3 kts | 314° |
| 2026-04-15 10:30 | 41.25842 | 36.55680 | 71 ft | 6 kts | 314° |
| 2026-04-15 10:31 | 41.25877 | 36.55630 | 71 ft | 9 kts | 314° |
| 2026-04-15 10:31 | 41.25923 | 36.55567 | 71 ft | 10 kts | 314° |
| 2026-04-15 10:31 | 41.25976 | 36.55495 | 72 ft | 12 kts | 314° |
| 2026-04-15 10:31 | 41.26036 | 36.55410 | 72 ft | 13 kts | 312° |
| 2026-04-15 10:32 | 41.26100 | 36.55317 | 72 ft | 14 kts | 313° |
| 2026-04-15 10:32 | 41.26153 | 36.55241 | 72 ft | 7 kts | 313° |
| 2026-04-15 10:32 | 41.26200 | 36.55217 | 72 ft | 8 kts | 9° |
| 2026-04-15 10:32 | 41.26249 | 36.55267 | 72 ft | 9 kts | 45° |
| 2026-04-15 10:33 | 41.26299 | 36.55332 | 72 ft | 11 kts | 45° |
| 2026-04-15 10:33 | 41.26352 | 36.55409 | 72 ft | 10 kts | 73° |
| 2026-04-15 10:33 | 41.26330 | 36.55480 | 72 ft | 0 kts | 134° |
| 2026-04-15 10:33 | 41.26330 | 36.55481 | 72 ft | 1 kts | 134° |
| 2026-04-15 10:34 | 41.26190 | 36.55671 | 71 ft | 67 kts | 133° |
| 2026-04-15 10:34 | 41.25716 | 36.56337 | 30 ft | 129 kts | 134° |
| 2026-04-15 10:34 | 41.25000 | 36.57368 | 107 ft | 167 kts | 130° |
| 2026-04-15 10:34 | 41.24191 | 36.58562 | 482 ft | 180 kts | 129° |
| 2026-04-15 10:35 | 41.23363 | 36.59885 | 1063 ft | 191 kts | 127° |
| 2026-04-15 10:35 | 41.22518 | 36.61297 | 1744 ft | 198 kts | 126° |
| 2026-04-15 10:35 | 41.21620 | 36.62762 | 2452 ft | 213 kts | 127° |
| 2026-04-15 10:35 | 41.20653 | 36.64415 | 2880 ft | 238 kts | 126° |
| 2026-04-15 10:36 | 41.19687 | 36.66226 | 3642 ft | 244 kts | 119° |
| 2026-04-15 10:36 | 41.19579 | 36.66488 | 3768 ft | 244 kts | 117° |
| 2026-04-15 10:36 | 41.19198 | 36.68605 | 4387 ft | 260 kts | 87° |
| 2026-04-15 10:36 | 41.19752 | 36.70913 | 4956 ft | 272 kts | 53° |
| 2026-04-15 10:37 | 41.21099 | 36.72689 | 5742 ft | 275 kts | 38° |
| 2026-04-15 10:37 | 41.22597 | 36.74286 | 6586 ft | 277 kts | 34° |
| 2026-04-15 10:37 | 41.24293 | 36.75487 | 7377 ft | 276 kts | 15° |
| 2026-04-15 10:37 | 41.26173 | 36.75822 | 8216 ft | 272 kts | 353° |
| 2026-04-15 10:38 | 41.27993 | 36.75213 | 9054 ft | 270 kts | 332° |
| 2026-04-15 10:38 | 41.29519 | 36.73785 | 9941 ft | 269 kts | 314° |
| 2026-04-15 10:38 | 41.30805 | 36.71895 | 10464 ft | 285 kts | 307° |
| 2026-04-15 10:38 | 41.31904 | 36.69622 | 10752 ft | 307 kts | 297° |
| 2026-04-15 10:39 | 41.32695 | 36.66878 | 11022 ft | 329 kts | 285° |
| 2026-04-15 10:39 | 41.33017 | 36.63771 | 11275 ft | 351 kts | 273° |
| 2026-04-15 10:39 | 41.32760 | 36.60453 | 11509 ft | 372 kts | 259° |
| 2026-04-15 10:39 | 41.31858 | 36.57163 | 11899 ft | 385 kts | 248° |
| 2026-04-15 10:40 | 41.30696 | 36.53925 | 12484 ft | 388 kts | 247° |
| 2026-04-15 10:40 | 41.29523 | 36.50673 | 13054 ft | 391 kts | 247° |
| 2026-04-15 10:40 | 41.28359 | 36.47388 | 13617 ft | 394 kts | 248° |
| 2026-04-15 10:40 | 41.27192 | 36.44068 | 14155 ft | 397 kts | 248° |
| 2026-04-15 10:41 | 41.26027 | 36.40732 | 14614 ft | 400 kts | 248° |
| 2026-04-15 10:41 | 41.24854 | 36.37373 | 15093 ft | 402 kts | 248° |
| 2026-04-15 10:41 | 41.23676 | 36.33989 | 15584 ft | 404 kts | 248° |
| 2026-04-15 10:41 | 41.22494 | 36.30595 | 16071 ft | 406 kts | 248° |
| 2026-04-15 10:42 | 41.21295 | 36.27177 | 16488 ft | 409 kts | 248° |
| 2026-04-15 10:42 | 41.20111 | 36.23793 | 16920 ft | 411 kts | 248° |
| 2026-04-15 10:42 | 41.18900 | 36.20335 | 17325 ft | 413 kts | 248° |
| 2026-04-15 10:42 | 41.17681 | 36.16861 | 17692 ft | 415 kts | 248° |
| 2026-04-15 10:43 | 41.16462 | 36.13385 | 18102 ft | 417 kts | 248° |
| 2026-04-15 10:43 | 41.15231 | 36.09883 | 18520 ft | 420 kts | 248° |
| 2026-04-15 10:43 | 41.14000 | 36.06367 | 18873 ft | 421 kts | 249° |
| 2026-04-15 10:43 | 41.12754 | 36.02836 | 19264 ft | 423 kts | 248° |
| 2026-04-15 10:44 | 41.11507 | 35.99300 | 19656 ft | 424 kts | 249° |
| 2026-04-15 10:44 | 41.10258 | 35.95752 | 20073 ft | 425 kts | 249° |
| 2026-04-15 10:44 | 41.09043 | 35.92177 | 20467 ft | 424 kts | 252° |
| 2026-04-15 10:44 | 41.07963 | 35.88530 | 20858 ft | 425 kts | 253° |
| 2026-04-15 10:45 | 41.06891 | 35.84875 | 21259 ft | 427 kts | 253° |
| 2026-04-15 10:45 | 41.05813 | 35.81199 | 21710 ft | 429 kts | 253° |
| 2026-04-15 10:45 | 41.04727 | 35.77501 | 22177 ft | 430 kts | 253° |
| 2026-04-15 10:45 | 41.03649 | 35.73855 | 22631 ft | 431 kts | 253° |
| 2026-04-15 10:46 | 41.02561 | 35.70148 | 23082 ft | 433 kts | 254° |
| 2026-04-15 10:46 | 41.01477 | 35.66436 | 23542 ft | 433 kts | 255° |
| 2026-04-15 10:46 | 41.00416 | 35.62702 | 23963 ft | 433 kts | 255° |
| 2026-04-15 10:46 | 40.99356 | 35.58969 | 24377 ft | 433 kts | 255° |
| 2026-04-15 10:47 | 40.98292 | 35.55252 | 24867 ft | 430 kts | 255° |
| 2026-04-15 10:47 | 40.97236 | 35.51564 | 25367 ft | 427 kts | 255° |
| 2026-04-15 10:47 | 40.96183 | 35.47906 | 25874 ft | 424 kts | 255° |
| 2026-04-15 10:47 | 40.95134 | 35.44256 | 26304 ft | 423 kts | 255° |
| 2026-04-15 10:48 | 40.94085 | 35.40615 | 26757 ft | 423 kts | 255° |
| 2026-04-15 10:48 | 40.93041 | 35.36990 | 27267 ft | 420 kts | 255° |
| 2026-04-15 10:48 | 40.92001 | 35.33393 | 27802 ft | 417 kts | 255° |
| 2026-04-15 10:48 | 40.90979 | 35.29870 | 28317 ft | 414 kts | 255° |
| 2026-04-15 10:49 | 40.89958 | 35.26323 | 28811 ft | 412 kts | 255° |
| 2026-04-15 10:49 | 40.88938 | 35.22795 | 29267 ft | 410 kts | 255° |
| 2026-04-15 10:49 | 40.87921 | 35.19285 | 29717 ft | 408 kts | 255° |
| 2026-04-15 10:49 | 40.86905 | 35.15792 | 30139 ft | 406 kts | 255° |
| 2026-04-15 10:50 | 40.85892 | 35.12320 | 30496 ft | 404 kts | 255° |
| 2026-04-15 10:50 | 40.84882 | 35.08852 | 30822 ft | 404 kts | 255° |
| 2026-04-15 10:50 | 40.83874 | 35.05388 | 31112 ft | 403 kts | 254° |
| 2026-04-15 10:50 | 40.82865 | 35.01927 | 31393 ft | 404 kts | 254° |
| 2026-04-15 10:51 | 40.81847 | 34.98471 | 31702 ft | 404 kts | 254° |
| 2026-04-15 10:51 | 40.80830 | 34.95015 | 32032 ft | 403 kts | 254° |
| 2026-04-15 10:51 | 40.79821 | 34.91562 | 32350 ft | 402 kts | 254° |
| 2026-04-15 10:51 | 40.78809 | 34.88120 | 32665 ft | 402 kts | 254° |
| 2026-04-15 10:52 | 40.77794 | 34.84688 | 32955 ft | 401 kts | 253° |
| 2026-04-15 10:52 | 40.77121 | 34.82415 | 33144 ft | 401 kts | 253° |
| 2026-04-15 10:52 | 40.76109 | 34.78990 | 33433 ft | 401 kts | 253° |
| 2026-04-15 10:52 | 40.74773 | 34.74448 | 33776 ft | 400 kts | 253° |
| 2026-04-15 10:53 | 40.73757 | 34.71034 | 34080 ft | 399 kts | 253° |
| 2026-04-15 10:53 | 40.72732 | 34.67646 | 34340 ft | 397 kts | 252° |
| 2026-04-15 10:53 | 40.72043 | 34.65362 | 34478 ft | 397 kts | 253° |
| 2026-04-15 10:53 | 40.71019 | 34.61974 | 34655 ft | 398 kts | 253° |
| 2026-04-15 10:54 | 40.69994 | 34.58585 | 34817 ft | 398 kts | 253° |
| 2026-04-15 10:54 | 40.68966 | 34.55196 | 35016 ft | 398 kts | 253° |
| 2026-04-15 10:54 | 40.67951 | 34.51851 | 35176 ft | 398 kts | 253° |
| 2026-04-15 10:54 | 40.66925 | 34.48469 | 35354 ft | 398 kts | 253° |
| 2026-04-15 10:55 | 40.65902 | 34.45090 | 35502 ft | 397 kts | 253° |
| 2026-04-15 10:55 | 40.64878 | 34.41725 | 35718 ft | 395 kts | 253° |
| 2026-04-15 10:55 | 40.63853 | 34.38375 | 35920 ft | 394 kts | 253° |
| 2026-04-15 10:55 | 40.62833 | 34.35036 | 36097 ft | 393 kts | 253° |
| 2026-04-15 10:56 | 40.61816 | 34.31705 | 36211 ft | 393 kts | 253° |
| 2026-04-15 10:56 | 40.59775 | 34.25043 | 36208 ft | 392 kts | 253° |
| 2026-04-15 10:57 | 40.57733 | 34.18381 | 36203 ft | 392 kts | 253° |
| 2026-04-15 10:57 | 40.54669 | 34.08433 | 36197 ft | 390 kts | 253° |
| 2026-04-15 10:58 | 40.52633 | 34.01818 | 36195 ft | 390 kts | 253° |
| 2026-04-15 10:58 | 40.50593 | 33.95190 | 36194 ft | 390 kts | 253° |
| 2026-04-15 10:59 | 40.48867 | 33.88498 | 36196 ft | 387 kts | 256° |
| 2026-04-15 10:59 | 40.47198 | 33.81757 | 36187 ft | 388 kts | 256° |
| 2026-04-15 11:00 | 40.45536 | 33.75016 | 36186 ft | 387 kts | 258° |
| 2026-04-15 11:00 | 40.44923 | 33.68096 | 36181 ft | 380 kts | 275° |
| 2026-04-15 11:01 | 40.45972 | 33.61293 | 36183 ft | 381 kts | 284° |
| 2026-04-15 11:01 | 40.47274 | 33.54546 | 36183 ft | 381 kts | 283° |
| 2026-04-15 11:02 | 40.48514 | 33.47800 | 36188 ft | 381 kts | 283° |
| 2026-04-15 11:02 | 40.49746 | 33.41084 | 36177 ft | 381 kts | 283° |
| 2026-04-15 11:03 | 40.50980 | 33.34307 | 36186 ft | 381 kts | 283° |
| 2026-04-15 11:03 | 40.52214 | 33.27518 | 36175 ft | 382 kts | 283° |
| 2026-04-15 11:04 | 40.53464 | 33.20729 | 36183 ft | 383 kts | 283° |
| 2026-04-15 11:04 | 40.54706 | 33.13931 | 36196 ft | 382 kts | 283° |
| 2026-04-15 11:05 | 40.55933 | 33.07137 | 36182 ft | 382 kts | 283° |
| 2026-04-15 11:05 | 40.57152 | 33.00323 | 36178 ft | 382 kts | 283° |
| 2026-04-15 11:06 | 40.58365 | 32.93542 | 36185 ft | 383 kts | 283° |
| 2026-04-15 11:06 | 40.59578 | 32.86718 | 36191 ft | 384 kts | 282° |
| 2026-04-15 11:07 | 40.60790 | 32.79855 | 36195 ft | 384 kts | 282° |
| 2026-04-15 11:07 | 40.62007 | 32.73004 | 36194 ft | 384 kts | 282° |
| 2026-04-15 11:08 | 40.63222 | 32.66136 | 36196 ft | 384 kts | 282° |
| 2026-04-15 11:08 | 40.64426 | 32.59288 | 36196 ft | 384 kts | 282° |
| 2026-04-15 11:09 | 40.65636 | 32.52432 | 36191 ft | 385 kts | 282° |
| 2026-04-15 11:09 | 40.66822 | 32.45555 | 36188 ft | 387 kts | 282° |
| 2026-04-15 11:10 | 40.68003 | 32.38672 | 36187 ft | 385 kts | 282° |
| 2026-04-15 11:10 | 40.69190 | 32.31802 | 36192 ft | 385 kts | 282° |
| 2026-04-15 11:11 | 40.70366 | 32.24961 | 36186 ft | 385 kts | 282° |
| 2026-04-15 11:11 | 40.71640 | 32.18089 | 36189 ft | 386 kts | 286° |
| 2026-04-15 11:12 | 40.73339 | 32.11373 | 36192 ft | 386 kts | 287° |
| 2026-04-15 11:12 | 40.75043 | 32.04652 | 36190 ft | 386 kts | 287° |
| 2026-04-15 11:13 | 40.76720 | 31.97909 | 36189 ft | 388 kts | 286° |
| 2026-04-15 11:13 | 40.78393 | 31.91193 | 36196 ft | 387 kts | 286° |
| 2026-04-15 11:14 | 40.80056 | 31.84430 | 36179 ft | 388 kts | 286° |
| 2026-04-15 11:14 | 40.81726 | 31.77681 | 36190 ft | 386 kts | 286° |
| 2026-04-15 11:15 | 40.83400 | 31.70926 | 36193 ft | 387 kts | 286° |
| 2026-04-15 11:15 | 40.85059 | 31.64162 | 36204 ft | 387 kts | 286° |
| 2026-04-15 11:16 | 40.86716 | 31.57379 | 36213 ft | 387 kts | 286° |
| 2026-04-15 11:16 | 40.88371 | 31.50584 | 36205 ft | 388 kts | 286° |
| 2026-04-15 11:17 | 40.90029 | 31.43797 | 36204 ft | 388 kts | 285° |
| 2026-04-15 11:17 | 40.91591 | 31.37014 | 35965 ft | 383 kts | 284° |
| 2026-04-15 11:18 | 40.92340 | 31.33652 | 35361 ft | 380 kts | 284° |
| 2026-04-15 11:18 | 40.93085 | 31.30295 | 34693 ft | 380 kts | 284° |
| 2026-04-15 11:18 | 40.93832 | 31.26941 | 34021 ft | 380 kts | 284° |
| 2026-04-15 11:18 | 40.94592 | 31.23584 | 33319 ft | 382 kts | 284° |
| 2026-04-15 11:19 | 40.95354 | 31.20217 | 32664 ft | 383 kts | 284° |
| 2026-04-15 11:19 | 40.96108 | 31.16839 | 32005 ft | 383 kts | 284° |
| 2026-04-15 11:19 | 40.96861 | 31.13454 | 31367 ft | 384 kts | 284° |
| 2026-04-15 11:19 | 40.97611 | 31.10059 | 30716 ft | 385 kts | 284° |
| 2026-04-15 11:20 | 40.98360 | 31.06653 | 29999 ft | 386 kts | 284° |
| 2026-04-15 11:20 | 40.99080 | 31.03221 | 29209 ft | 387 kts | 282° |
| 2026-04-15 11:20 | 40.99497 | 30.99697 | 28452 ft | 390 kts | 274° |
| 2026-04-15 11:20 | 40.99458 | 30.96085 | 27722 ft | 395 kts | 265° |
| 2026-04-15 11:21 | 40.99097 | 30.92461 | 26953 ft | 400 kts | 262° |
| 2026-04-15 11:21 | 40.98685 | 30.88806 | 26178 ft | 404 kts | 262° |
| 2026-04-15 11:21 | 40.98278 | 30.85103 | 25366 ft | 408 kts | 263° |
| 2026-04-15 11:21 | 40.97872 | 30.81367 | 24625 ft | 413 kts | 262° |
| 2026-04-15 11:22 | 40.97459 | 30.77587 | 23922 ft | 417 kts | 262° |
| 2026-04-15 11:22 | 40.97043 | 30.73782 | 23192 ft | 418 kts | 262° |
| 2026-04-15 11:22 | 40.96627 | 30.69975 | 22510 ft | 417 kts | 262° |
| 2026-04-15 11:22 | 40.96206 | 30.66085 | 22116 ft | 436 kts | 263° |
| 2026-04-15 11:23 | 40.95774 | 30.62094 | 21776 ft | 438 kts | 262° |
| 2026-04-15 11:23 | 40.95336 | 30.58140 | 21281 ft | 431 kts | 262° |
| 2026-04-15 11:23 | 40.94903 | 30.54250 | 20703 ft | 425 kts | 262° |
| 2026-04-15 11:23 | 40.94484 | 30.50450 | 20166 ft | 420 kts | 262° |
| 2026-04-15 11:24 | 40.94062 | 30.46657 | 19651 ft | 414 kts | 262° |
| 2026-04-15 11:24 | 40.93643 | 30.42906 | 19109 ft | 411 kts | 262° |
| 2026-04-15 11:24 | 40.93225 | 30.39182 | 18525 ft | 409 kts | 262° |
| 2026-04-15 11:24 | 40.92810 | 30.35452 | 17811 ft | 409 kts | 262° |
| 2026-04-15 11:25 | 40.92400 | 30.31745 | 17198 ft | 407 kts | 262° |
| 2026-04-15 11:25 | 40.92197 | 30.29894 | 16922 ft | 405 kts | 262° |
| 2026-04-15 11:29 | 40.91817 | 30.26516 | 16432 ft | 402 kts | 262° |
| 2026-04-15 11:30 | 40.91402 | 30.22880 | 15925 ft | 398 kts | 262° |
| 2026-04-15 11:30 | 40.90986 | 30.19273 | 15420 ft | 395 kts | 262° |
| 2026-04-15 11:30 | 40.90575 | 30.15694 | 14960 ft | 392 kts | 261° |
| 2026-04-15 11:30 | 40.90170 | 30.12156 | 14555 ft | 387 kts | 261° |
| 2026-04-15 11:31 | 40.89776 | 30.08707 | 14178 ft | 383 kts | 261° |
| 2026-04-15 11:31 | 40.89379 | 30.05228 | 13751 ft | 381 kts | 261° |
| 2026-04-15 11:31 | 40.88980 | 30.01769 | 13206 ft | 380 kts | 261° |
| 2026-04-15 11:31 | 40.88584 | 29.98324 | 12679 ft | 378 kts | 261° |
| 2026-04-15 11:32 | 40.88191 | 29.94905 | 12205 ft | 372 kts | 261° |
| 2026-04-15 11:32 | 40.87810 | 29.91578 | 11919 ft | 360 kts | 261° |
| 2026-04-15 11:32 | 40.87435 | 29.88374 | 11705 ft | 347 kts | 261° |
| 2026-04-15 11:32 | 40.87074 | 29.85288 | 11522 ft | 333 kts | 261° |
| 2026-04-15 11:33 | 40.86728 | 29.82318 | 11369 ft | 321 kts | 261° |
| 2026-04-15 11:33 | 40.86392 | 29.79459 | 11222 ft | 309 kts | 261° |
| 2026-04-15 11:33 | 40.86069 | 29.76703 | 11084 ft | 298 kts | 261° |
| 2026-04-15 11:33 | 40.85758 | 29.74051 | 10928 ft | 287 kts | 261° |
| 2026-04-15 11:34 | 40.85456 | 29.71467 | 10474 ft | 284 kts | 261° |
| 2026-04-15 11:34 | 40.85156 | 29.68925 | 9984 ft | 283 kts | 262° |
| 2026-04-15 11:34 | 40.84854 | 29.66366 | 9455 ft | 282 kts | 261° |
| 2026-04-15 11:34 | 40.84551 | 29.63815 | 8938 ft | 281 kts | 261° |
| 2026-04-15 11:35 | 40.84250 | 29.61270 | 8571 ft | 279 kts | 261° |
| 2026-04-15 11:35 | 40.83951 | 29.58747 | 8213 ft | 277 kts | 261° |
| 2026-04-15 11:35 | 40.83653 | 29.56242 | 7850 ft | 275 kts | 261° |
| 2026-04-15 11:35 | 40.83357 | 29.53748 | 7507 ft | 274 kts | 261° |
| 2026-04-15 11:36 | 40.83064 | 29.51272 | 7194 ft | 272 kts | 261° |
| 2026-04-15 11:36 | 40.82772 | 29.48797 | 6883 ft | 272 kts | 261° |
| 2026-04-15 11:36 | 40.82475 | 29.46339 | 6568 ft | 270 kts | 261° |
| 2026-04-15 11:36 | 40.82182 | 29.43895 | 6237 ft | 269 kts | 260° |
| 2026-04-15 11:37 | 40.81885 | 29.41454 | 5924 ft | 269 kts | 260° |
| 2026-04-15 11:37 | 40.81591 | 29.39020 | 5632 ft | 268 kts | 260° |
| 2026-04-15 11:37 | 40.81300 | 29.36590 | 5337 ft | 268 kts | 260° |
| 2026-04-15 11:37 | 40.81008 | 29.34165 | 5045 ft | 268 kts | 259° |
| 2026-04-15 11:38 | 40.80715 | 29.31745 | 4741 ft | 265 kts | 259° |
| 2026-04-15 11:38 | 40.80425 | 29.29343 | 4418 ft | 265 kts | 259° |
| 2026-04-15 11:38 | 40.80136 | 29.26936 | 4120 ft | 264 kts | 260° |
| 2026-04-15 11:38 | 40.79857 | 29.24612 | 3969 ft | 254 kts | 259° |
| 2026-04-15 11:39 | 40.79580 | 29.22384 | 3951 ft | 238 kts | 260° |
| 2026-04-15 11:39 | 40.79328 | 29.20311 | 3949 ft | 219 kts | 260° |
| 2026-04-15 11:39 | 40.79098 | 29.18434 | 3993 ft | 194 kts | 260° |
| 2026-04-15 11:39 | 40.78886 | 29.16710 | 4004 ft | 189 kts | 260° |
| 2026-04-15 11:40 | 40.78680 | 29.15025 | 3867 ft | 183 kts | 260° |
| 2026-04-15 11:40 | 40.78526 | 29.13343 | 3470 ft | 186 kts | 266° |
| 2026-04-15 11:40 | 40.78658 | 29.12231 | 3200 ft | 188 kts | 293° |
| 2026-04-15 11:40 | 40.79587 | 29.11064 | 2991 ft | 189 kts | 336° |
| 2026-04-15 11:41 | 40.80876 | 29.10999 | 2972 ft | 190 kts | 18° |
| 2026-04-15 11:41 | 40.81861 | 29.12107 | 2987 ft | 189 kts | 56° |
| 2026-04-15 11:41 | 40.82423 | 29.13666 | 2971 ft | 188 kts | 71° |
| 2026-04-15 11:41 | 40.82966 | 29.15233 | 2797 ft | 187 kts | 66° |
| 2026-04-15 11:42 | 40.83514 | 29.16745 | 2558 ft | 185 kts | 64° |
| 2026-04-15 11:42 | 40.84079 | 29.18289 | 2312 ft | 182 kts | 64° |
| 2026-04-15 11:42 | 40.84615 | 29.19749 | 2079 ft | 165 kts | 64° |
| 2026-04-15 11:42 | 40.85097 | 29.21059 | 1844 ft | 157 kts | 63° |
| 2026-04-15 11:43 | 40.85566 | 29.22333 | 1632 ft | 152 kts | 62° |
| 2026-04-15 11:43 | 40.85989 | 29.23486 | 1421 ft | 130 kts | 60° |
| 2026-04-15 11:43 | 40.86385 | 29.24562 | 1253 ft | 128 kts | 62° |
| 2026-04-15 11:43 | 40.86783 | 29.25638 | 1092 ft | 133 kts | 59° |
| 2026-04-15 11:44 | 40.87189 | 29.26748 | 911 ft | 134 kts | 60° |
| 2026-04-15 11:44 | 40.87594 | 29.27851 | 739 ft | 132 kts | 62° |
| 2026-04-15 11:44 | 40.87984 | 29.28921 | 560 ft | 128 kts | 60° |
| 2026-04-15 11:44 | 40.88378 | 29.29969 | 386 ft | 130 kts | 60° |
| 2026-04-15 11:45 | 40.88770 | 29.31035 | 306 ft | 124 kts | 60° |
| 2026-04-15 11:45 | 40.89090 | 29.31875 | 314 ft | 78 kts | 63° |
| 2026-04-15 11:45 | 40.89246 | 29.32307 | 308 ft | 31 kts | 52° |
| 2026-04-15 11:45 | 40.89381 | 29.32445 | 310 ft | 17 kts | 35° |
| 2026-04-15 11:46 | 40.89455 | 29.32505 | 312 ft | 6 kts | 20° |
| 2026-04-15 11:46 | 40.89497 | 29.32483 | 312 ft | 8 kts | 296° |
| 2026-04-15 11:46 | 40.89493 | 29.32401 | 312 ft | 10 kts | 283° |
| 2026-04-15 11:46 | 40.89555 | 29.32349 | 312 ft | 12 kts | 351° |
| 2026-04-15 11:47 | 40.89639 | 29.32317 | 311 ft | 13 kts | 332° |
| 2026-04-15 11:47 | 40.89728 | 29.32259 | 312 ft | 16 kts | 334° |
| 2026-04-15 11:47 | 40.89840 | 29.32188 | 316 ft | 19 kts | 336° |
| 2026-04-15 11:47 | 40.89966 | 29.32107 | 320 ft | 21 kts | 334° |
| 2026-04-15 11:48 | 40.90048 | 29.32055 | 326 ft | 10 kts | 334° |
| 2026-04-15 11:48 | 40.90106 | 29.32098 | 325 ft | 12 kts | 64° |
| 2026-04-15 11:48 | 40.90145 | 29.32205 | 326 ft | 14 kts | 65° |
| 2026-04-15 11:48 | 40.90190 | 29.32331 | 326 ft | 16 kts | 64° |
| 2026-04-15 11:49 | 40.90241 | 29.32469 | 325 ft | 17 kts | 64° |
| 2026-04-15 11:49 | 40.90286 | 29.32580 | 324 ft | 10 kts | 37° |
| 2026-04-15 11:49 | 40.90357 | 29.32566 | 326 ft | 12 kts | 333° |
| 2026-04-15 11:49 | 40.90443 | 29.32512 | 325 ft | 15 kts | 335° |
| 2026-04-15 11:50 | 40.90543 | 29.32448 | 325 ft | 17 kts | 331° |
| 2026-04-15 11:50 | 40.90608 | 29.32373 | 324 ft | 10 kts | 291° |
| 2026-04-15 11:50 | 40.90662 | 29.32312 | 326 ft | 12 kts | 332° |
| 2026-04-15 11:50 | 40.90724 | 29.32271 | 326 ft | 9 kts | 324° |
| 2026-04-15 11:51 | 40.90729 | 29.32193 | 325 ft | 11 kts | 241° |
| 2026-04-15 11:51 | 40.90752 | 29.32116 | 326 ft | 12 kts | 335° |
| 2026-04-15 11:51 | 40.90829 | 29.32054 | 326 ft | 14 kts | 300° |
| 2026-04-15 11:51 | 40.90901 | 29.31964 | 326 ft | 16 kts | 336° |
| 2026-04-15 11:52 | 40.90968 | 29.31921 | 325 ft | 9 kts | 315° |
| 2026-04-15 11:52 | 40.90964 | 29.31864 | 324 ft | 3 kts | 244° |
| 2026-04-15 11:52 | 40.90958 | 29.31848 | 326 ft | 0 kts | 244° |